Time;durP1;ratioP1;P1;durP2;ratioP2;P2;SDS_P1;SDS_P2;PMS_P1;PMS_P2;Temp;Humidity;BMP_temperature;BMP_pressure;BME280_temperature;BME280_humidity;BME280_pressure;Samples;Min_cycle;Max_cycle;Signal;HPM_P1;HPM_P2
2022/10/19 00:01:02;;;;;;;;;;;;;;;17.05;100.00;98875.75;5080988;28;19924;-72
2022/10/19 00:03:29;;;;;;;;;;;;;;;17.06;100.00;98874.66;5080562;28;20459;-72
2022/10/19 00:05:55;;;;;;;;;;;;;;;17.06;100.00;98874.66;5069341;28;19935;-72
2022/10/19 00:08:22;;;;;;;;;;;;;;;16.99;100.00;98870.69;5077442;28;19925;-72
2022/10/19 00:10:50;;;;;;;;;;;;;;;16.94;100.00;98871.53;5080014;28;19988;-73
2022/10/19 00:13:16;;;;;;;;;;;;;;;16.95;100.00;98883.13;5080733;28;19956;-72
2022/10/19 00:15:43;;;;;;;;;;;;;;;16.88;100.00;98885.31;5078994;28;20023;-72
2022/10/19 00:18:10;;;;;;;;;;;;;;;16.79;100.00;98890.50;5077315;28;19941;-72
2022/10/19 00:20:37;;;;;;;;;;;;;;;16.62;100.00;98890.06;5078133;28;19932;-72
2022/10/19 00:23:03;;;;;;;;;;;;;;;16.51;100.00;98904.66;5080767;28;20000;-72
2022/10/19 00:25:29;;;;;;;;;;;;;;;16.45;100.00;98897.66;5080514;28;19996;-72
2022/10/19 00:27:57;;;;;;;;;;;;;;;16.09;100.00;98911.28;5077047;28;19988;-72
2022/10/19 00:30:23;;;;;;;;;;;;;;;15.98;100.00;98919.66;5077549;28;19948;-72
2022/10/19 00:32:50;;;;;;;;;;;;;;;15.90;100.00;98926.44;5079626;28;19968;-72
2022/10/19 00:35:16;;;;;;;;;;;;;;;15.70;100.00;98921.06;5080254;28;19935;-72
2022/10/19 00:37:42;;;;;;;;;;;;;;;15.68;100.00;98925.91;5078408;28;20488;-72
2022/10/19 00:40:09;;;;;;;;;;;;;;;15.70;100.00;98925.63;5076116;28;19996;-72
2022/10/19 00:42:35;;;;;;;;;;;;;;;15.56;100.00;98931.59;5076776;28;19960;-73
2022/10/19 00:45:11;;;;;;;;;;;;;;;15.56;100.00;98931.59;5079855;28;19992;-72
2022/10/19 00:47:38;;;;;;;;;;;;;;;15.77;100.00;98932.38;5079065;28;19993;-72
2022/10/19 00:50:05;;;;;;;;;;;;;;;15.92;100.00;98924.25;5075240;28;19988;-73
2022/10/19 00:52:32;;;;;;;;;;;;;;;16.06;100.00;98936.06;5075170;28;19985;-73
2022/10/19 00:54:58;;;;;;;;;;;;;;;16.22;100.00;98938.75;5079614;28;19954;-72
2022/10/19 00:57:27;;;;;;;;;;;;;;;16.15;100.00;98930.94;5094932;28;20317;-72
2022/10/19 00:59:54;;;;;;;;;;;;;;;15.90;100.00;98929.13;5076216;28;19925;-72
2022/10/19 01:02:22;;;;;;;;;;;;;;;15.74;100.00;98927.53;5075725;28;19967;-72
2022/10/19 01:04:50;;;;;;;;;;;;;;;15.68;100.00;98931.31;5077489;28;20213;-73
2022/10/19 01:07:17;;;;;;;;;;;;;;;15.70;100.00;98929.13;5078356;28;19960;-72
2022/10/19 01:09:43;;;;;;;;;;;;;;;15.57;100.00;98927.81;5077686;28;19991;-72
2022/10/19 01:12:13;;;;;;;;;;;;;;;15.77;100.00;98926.97;5076144;28;20000;-72
2022/10/19 01:14:48;;;;;;;;;;;;;;;15.88;100.00;98931.25;5077147;28;19924;-73
2022/10/19 01:17:21;;;;;;;;;;;;;;;15.91;100.00;98924.53;5079127;28;20011;-73
2022/10/19 01:20:09;;;;;;;;;;;;;;;15.94;100.00;98921.28;5076675;28;20003;-73
2022/10/19 01:22:44;;;;;;;;;;;;;;;15.95;100.00;98922.91;5075906;28;19996;-73
2022/10/19 01:25:18;;;;;;;;;;;;;;;16.16;100.00;98922.56;5078611;28;19936;-71
2022/10/19 01:27:53;;;;;;;;;;;;;;;16.14;100.00;98913.16;5076632;28;20026;-72
2022/10/19 01:30:27;;;;;;;;;;;;;;;16.30;100.00;98905.81;5075323;28;19929;-71
2022/10/19 01:33:02;;;;;;;;;;;;;;;16.06;100.00;98916.44;5078835;28;19924;-72
2022/10/19 01:35:33;;;;;;;;;;;;;;;16.08;100.00;98911.56;5078920;28;19921;-72
2022/10/19 01:38:07;;;;;;;;;;;;;;;16.21;100.00;98916.38;5068247;28;19975;-72
2022/10/19 01:40:37;;;;;;;;;;;;;;;16.20;100.00;98912.06;5076919;28;19980;-71
2022/10/19 01:43:09;;;;;;;;;;;;;;;16.13;100.00;98906.97;5079516;28;19960;-73
2022/10/19 01:45:40;;;;;;;;;;;;;;;16.15;100.00;98907.47;5078325;28;20007;-72
2022/10/19 01:48:10;;;;;;;;;;;;;;;16.32;100.00;98892.88;5075315;28;20000;-71
2022/10/19 01:50:40;;;;;;;;;;;;;;;16.40;100.00;98903.09;5076178;28;19924;-72
2022/10/19 01:53:08;;;;;;;;;;;;;;;16.33;100.00;98897.19;5078362;28;19964;-72
2022/10/19 01:55:35;;;;;;;;;;;;;;;16.27;100.00;98887.50;5092919;28;19924;-71
2022/10/19 01:58:03;;;;;;;;;;;;;;;16.37;100.00;98884.78;5075258;28;20011;-72
2022/10/19 02:00:31;;;;;;;;;;;;;;;16.26;100.00;98883.19;5074453;28;20027;-72
2022/10/19 02:03:00;;;;;;;;;;;;;;;16.18;100.00;98879.19;5078134;28;19924;-72
2022/10/19 02:05:28;;;;;;;;;;;;;;;16.25;100.00;98887.00;5078136;28;19925;-73
2022/10/19 02:07:58;;;;;;;;;;;;;;;16.25;100.00;98885.06;5066227;28;19988;-72
2022/10/19 02:10:24;;;;;;;;;;;;;;;16.19;100.00;98881.59;5073139;28;20019;-72
2022/10/19 02:12:53;;;;;;;;;;;;;;;16.27;100.00;98880.22;5077037;28;19979;-72
2022/10/19 02:15:21;;;;;;;;;;;;;;;16.13;100.00;98877.31;5077657;28;19925;-72
2022/10/19 02:17:49;;;;;;;;;;;;;;;16.29;100.00;98877.25;5073741;28;19924;-71
2022/10/19 02:20:17;;;;;;;;;;;;;;;16.38;100.00;98872.88;5074471;28;19931;-72
2022/10/19 02:22:44;;;;;;;;;;;;;;;16.40;100.00;98866.13;5075915;28;19971;-72
2022/10/19 02:25:11;;;;;;;;;;;;;;;16.40;100.00;98871.53;5077702;28;19984;-72
2022/10/19 02:27:40;;;;;;;;;;;;;;;16.05;100.00;98872.50;5091921;28;19940;-72
2022/10/19 02:30:07;;;;;;;;;;;;;;;15.88;100.00;98868.50;5073916;28;20040;-71
2022/10/19 02:32:34;;;;;;;;;;;;;;;15.90;100.00;98871.75;5074308;28;19935;-72
2022/10/19 02:35:00;;;;;;;;;;;;;;;15.72;100.00;98866.94;5077152;28;19967;-72
2022/10/19 02:37:28;;;;;;;;;;;;;;;15.50;100.00;98861.88;5076312;28;19964;-71
2022/10/19 02:39:54;;;;;;;;;;;;;;;15.53;100.00;98874.78;5073933;28;19978;-72
2022/10/19 02:42:24;;;;;;;;;;;;;;;15.51;100.00;98872.34;5073704;28;19939;-72
2022/10/19 02:44:56;;;;;;;;;;;;;;;15.77;100.00;98867.72;5076363;28;19967;-72
2022/10/19 02:47:25;;;;;;;;;;;;;;;15.81;100.00;98866.13;5076922;28;19924;-71
2022/10/19 02:49:52;;;;;;;;;;;;;;;15.63;100.00;98866.66;5074427;28;20365;-72
2022/10/19 02:52:18;;;;;;;;;;;;;;;15.68;100.00;98871.25;5072231;28;20333;-72
2022/10/19 02:54:46;;;;;;;;;;;;;;;15.83;100.00;98858.56;5075357;28;20339;-72
2022/10/19 02:57:15;;;;;;;;;;;;;;;15.69;100.00;98865.56;5076726;28;19991;-72
2022/10/19 02:59:41;;;;;;;;;;;;;;;15.68;100.00;98860.47;5074059;28;19936;-72
2022/10/19 03:02:08;;;;;;;;;;;;;;;15.41;100.00;98863.47;5073547;28;19947;-72
2022/10/19 03:04:34;;;;;;;;;;;;;;;15.61;100.00;98855.38;5074045;28;19935;-72
2022/10/19 03:07:00;;;;;;;;;;;;;;;15.76;100.00;98851.81;5076706;28;19997;-71
2022/10/19 03:09:27;;;;;;;;;;;;;;;15.94;100.00;98846.66;5075235;28;19970;-71
2022/10/19 03:11:56;;;;;;;;;;;;;;;16.00;100.00;98850.16;5073300;28;19925;-71
2022/10/19 03:14:22;;;;;;;;;;;;;;;16.12;100.00;98839.88;5073147;28;19924;-72
2022/10/19 03:16:48;;;;;;;;;;;;;;;16.04;100.00;98843.94;5075924;28;19935;-72
2022/10/19 03:19:15;;;;;;;;;;;;;;;16.01;100.00;98836.41;5076796;28;19924;-72
2022/10/19 03:21:41;;;;;;;;;;;;;;;15.83;100.00;98837.00;5073792;28;19978;-72
2022/10/19 03:24:07;;;;;;;;;;;;;;;16.00;100.00;98836.69;5072989;28;19931;-72
2022/10/19 03:26:34;;;;;;;;;;;;;;;16.09;100.00;98838.50;5073659;28;19996;-72
2022/10/19 03:29:01;;;;;;;;;;;;;;;16.14;100.00;98838.50;5076408;28;19968;-71
2022/10/19 03:31:28;;;;;;;;;;;;;;;16.16;100.00;98836.34;5076391;28;19935;-72
2022/10/19 03:33:54;;;;;;;;;;;;;;;15.80;100.00;98840.25;5073037;28;19984;-72
2022/10/19 03:36:22;;;;;;;;;;;;;;;15.89;100.00;98835.91;5071260;28;19928;-72
2022/10/19 03:38:49;;;;;;;;;;;;;;;15.94;100.00;98838.56;5075206;28;20003;-72
2022/10/19 03:41:16;;;;;;;;;;;;;;;16.09;100.00;98833.13;5076351;28;19924;-72
2022/10/19 03:43:42;;;;;;;;;;;;;;;16.20;100.00;98832.00;5073071;28;19964;-72
2022/10/19 03:46:10;;;;;;;;;;;;;;;16.09;100.00;98830.44;5072656;28;19971;-71
2022/10/19 03:48:36;;;;;;;;;;;;;;;16.17;100.00;98829.88;5073312;28;19964;-72
2022/10/19 03:51:04;;;;;;;;;;;;;;;16.23;100.00;98835.22;5076051;28;19952;-72
2022/10/19 03:53:30;;;;;;;;;;;;;;;16.27;100.00;98831.72;5075723;28;19925;-72
2022/10/19 03:56:00;;;;;;;;;;;;;;;16.27;100.00;98833.59;5071163;28;19933;-72
2022/10/19 03:58:27;;;;;;;;;;;;;;;16.26;100.00;98840.88;5072652;28;20313;-72
2022/10/19 04:00:53;;;;;;;;;;;;;;;16.25;100.00;98830.38;5074580;28;20097;-72
2022/10/19 04:03:21;;;;;;;;;;;;;;;16.26;100.00;98826.59;5091806;28;19984;-72
2022/10/19 04:05:47;;;;;;;;;;;;;;;16.26;100.00;98835.47;5073902;28;19950;-72
2022/10/19 04:08:13;;;;;;;;;;;;;;;16.20;100.00;98837.41;5072786;28;20020;-72
2022/10/19 04:10:40;;;;;;;;;;;;;;;16.16;100.00;98833.63;5074059;28;19960;-72
2022/10/19 04:13:06;;;;;;;;;;;;;;;15.85;100.00;98829.44;5076256;28;19959;-72
2022/10/19 04:15:32;;;;;;;;;;;;;;;15.99;100.00;98827.00;5075770;28;19928;-71
2022/10/19 04:17:59;;;;;;;;;;;;;;;16.03;100.00;98838.84;5072369;28;19995;-72
2022/10/19 04:20:26;;;;;;;;;;;;;;;15.95;100.00;98836.69;5071302;28;19925;-72
2022/10/19 04:22:53;;;;;;;;;;;;;;;15.55;100.00;98843.00;5075751;28;19925;-72
2022/10/19 04:25:19;;;;;;;;;;;;;;;15.41;100.00;98842.72;5076618;28;19924;-72
2022/10/19 04:27:45;;;;;;;;;;;;;;;15.63;100.00;98840.56;5077642;28;19980;-72
2022/10/19 04:30:12;;;;;;;;;;;;;;;15.72;100.00;98846.19;5076219;28;20003;-72
2022/10/19 04:32:38;;;;;;;;;;;;;;;15.68;100.00;98847.81;5077247;28;20023;-72
2022/10/19 04:35:05;;;;;;;;;;;;;;;15.62;100.00;98838.97;5079938;28;19925;-72
2022/10/19 04:37:33;;;;;;;;;;;;;;;15.64;100.00;98838.66;5079458;28;20019;-72
2022/10/19 04:39:59;;;;;;;;;;;;;;;15.49;100.00;98839.50;5076083;28;19985;-72
2022/10/19 04:42:25;;;;;;;;;;;;;;;15.19;100.00;98830.63;5075962;28;19932;-72
2022/10/19 04:44:52;;;;;;;;;;;;;;;15.35;100.00;98841.09;5078944;28;20015;-72
2022/10/19 04:47:18;;;;;;;;;;;;;;;15.05;100.00;98844.63;5079293;28;19951;-72
2022/10/19 04:49:45;;;;;;;;;;;;;;;15.09;100.00;98840.34;5077105;28;20369;-72
2022/10/19 04:52:11;;;;;;;;;;;;;;;14.89;100.00;98840.31;5075475;28;20375;-72
2022/10/19 04:54:39;;;;;;;;;;;;;;;14.72;100.00;98839.78;5076651;28;19925;-72
2022/10/19 04:57:05;;;;;;;;;;;;;;;14.37;100.00;98843.19;5079208;28;19924;-72
2022/10/19 04:59:31;;;;;;;;;;;;;;;14.42;100.00;98839.72;5078821;28;19995;-72
2022/10/19 05:01:58;;;;;;;;;;;;;;;14.46;100.00;98836.22;5075821;28;20508;-74
2022/10/19 05:04:24;;;;;;;;;;;;;;;14.75;100.00;98843.81;5075347;28;19925;-71
2022/10/19 05:06:51;;;;;;;;;;;;;;;14.83;100.00;98840.56;5077124;28;19959;-73
2022/10/19 05:09:17;;;;;;;;;;;;;;;14.83;100.00;98844.06;5078990;28;19954;-72
2022/10/19 05:11:45;;;;;;;;;;;;;;;14.97;100.00;98837.09;5077294;28;19960;-72
2022/10/19 05:14:11;;;;;;;;;;;;;;;14.66;100.00;98835.47;5075815;28;20207;-72
2022/10/19 05:16:37;;;;;;;;;;;;;;;14.44;100.00;98833.00;5076482;28;19952;-72
2022/10/19 05:19:04;;;;;;;;;;;;;;;14.51;100.00;98832.75;5079117;28;19959;-72
2022/10/19 05:21:30;;;;;;;;;;;;;;;14.63;100.00;98829.81;5094470;28;19964;-72
2022/10/19 05:23:56;;;;;;;;;;;;;;;14.95;100.00;98833.84;5057843;28;20354;-73
2022/10/19 05:26:24;;;;;;;;;;;;;;;14.94;100.00;98836.81;5070759;28;19929;-72
2022/10/19 05:28:55;;;;;;;;;;;;;;;14.54;100.00;98833.00;5077783;28;20612;-72
2022/10/19 05:31:22;;;;;;;;;;;;;;;14.66;100.00;98826.59;5078632;28;20213;-71
2022/10/19 05:33:48;;;;;;;;;;;;;;;14.38;100.00;98820.63;5076209;28;19924;-71
2022/10/19 05:36:16;;;;;;;;;;;;;;;14.26;100.00;98827.28;5074843;28;19932;-72
2022/10/19 05:38:42;;;;;;;;;;;;;;;14.34;100.00;98818.72;5076122;28;19980;-72
2022/10/19 05:41:09;;;;;;;;;;;;;;;14.18;100.00;98822.38;5078516;28;19925;-71
2022/10/19 05:43:35;;;;;;;;;;;;;;;13.96;100.00;98815.34;5076003;28;20051;-71
2022/10/19 05:46:07;;;;;;;;;;;;;;;14.34;100.00;98813.34;5075034;28;19952;-72
2022/10/19 05:48:34;;;;;;;;;;;;;;;14.32;100.00;98818.16;5075451;28;19924;-72
2022/10/19 05:51:01;;;;;;;;;;;;;;;14.39;100.00;98824.13;5078645;28;19935;-72
2022/10/19 05:53:28;;;;;;;;;;;;;;;14.81;100.00;98834.66;5076482;28;19924;-71
2022/10/19 05:55:54;;;;;;;;;;;;;;;14.63;100.00;98821.72;5073816;28;19925;-72
2022/10/19 05:58:21;;;;;;;;;;;;;;;14.54;100.00;98830.31;5074427;28;20060;-72
2022/10/19 06:00:50;;;;;;;;;;;;;;;14.55;100.00;98831.13;5076820;28;20006;-71
2022/10/19 06:03:18;;;;;;;;;;;;;;;14.59;100.00;98830.34;5077904;28;19932;-72
2022/10/19 06:05:44;;;;;;;;;;;;;;;14.36;100.00;98821.97;5091360;28;19979;-72
2022/10/19 06:08:11;;;;;;;;;;;;;;;14.46;100.00;98832.72;5074474;28;19992;-71
2022/10/19 06:10:37;;;;;;;;;;;;;;;14.87;100.00;98833.59;5075376;28;20245;-71
2022/10/19 06:13:03;;;;;;;;;;;;;;;15.00;100.00;98830.38;5078411;28;19988;-72
2022/10/19 06:15:32;;;;;;;;;;;;;;;15.17;100.00;98838.16;5077069;28;19951;-71
2022/10/19 06:17:58;;;;;;;;;;;;;;;15.29;100.00;98838.72;5067064;28;19931;-73
2022/10/19 06:20:28;;;;;;;;;;;;;;;15.30;100.00;98840.31;5074941;28;20338;-72
2022/10/19 06:22:54;;;;;;;;;;;;;;;15.27;100.00;98835.47;5078128;28;19988;-72
2022/10/19 06:25:20;;;;;;;;;;;;;;;15.36;100.00;98839.22;5077678;28;19947;-72
2022/10/19 06:27:47;;;;;;;;;;;;;;;15.48;100.00;98839.78;5075240;28;19924;-72
2022/10/19 06:30:13;;;;;;;;;;;;;;;15.36;100.00;98850.00;5074124;28;19925;-72
2022/10/19 06:32:40;;;;;;;;;;;;;;;15.52;100.00;98847.03;5075348;28;19924;-71
2022/10/19 06:35:06;;;;;;;;;;;;;;;15.64;100.00;98846.75;5077717;28;19925;-72
2022/10/19 06:37:34;;;;;;;;;;;;;;;15.55;100.00;98851.06;5077278;28;19924;-71
2022/10/19 06:40:00;;;;;;;;;;;;;;;15.59;100.00;98849.47;5089639;28;19920;-71
2022/10/19 06:42:27;;;;;;;;;;;;;;;15.51;100.00;98860.75;5073821;28;20042;-71
2022/10/19 06:44:53;;;;;;;;;;;;;;;15.28;100.00;98861.31;5076824;28;19935;-72
2022/10/19 06:47:20;;;;;;;;;;;;;;;14.95;100.00;98866.13;5077231;28;19924;-71
2022/10/19 06:49:46;;;;;;;;;;;;;;;14.89;100.00;98877.16;5074236;28;20004;-71
2022/10/19 06:52:13;;;;;;;;;;;;;;;14.49;100.00;98864.44;5073469;28;20232;-71
2022/10/19 06:54:40;;;;;;;;;;;;;;;14.42;100.00;98871.97;5074440;28;19931;-71
2022/10/19 06:57:07;;;;;;;;;;;;;;;14.40;100.00;98880.28;5077114;28;19964;-73
2022/10/19 06:59:33;;;;;;;;;;;;;;;14.73;100.00;98884.38;5076747;28;19960;-72
2022/10/19 07:01:59;;;;;;;;;;;;;;;14.82;100.00;98885.50;5073696;28;19925;-72
2022/10/19 07:04:26;;;;;;;;;;;;;;;14.99;100.00;98894.13;5073833;28;19935;-72
2022/10/19 07:06:52;;;;;;;;;;;;;;;14.82;100.00;98890.88;5092648;28;19928;-73
2022/10/19 07:09:18;;;;;;;;;;;;;;;14.46;100.00;98894.53;5092961;28;19952;-71
2022/10/19 07:11:46;;;;;;;;;;;;;;;14.60;100.00;98884.91;5074815;28;19924;-71
2022/10/19 07:14:13;;;;;;;;;;;;;;;14.53;100.00;98884.34;5073931;28;19924;-72
2022/10/19 07:16:39;;;;;;;;;;;;;;;14.14;100.00;98897.34;5073506;28;19925;-71
2022/10/19 07:19:06;;;;;;;;;;;;;;;14.09;100.00;98894.63;5076910;28;19958;-72
2022/10/19 07:21:32;;;;;;;;;;;;;;;14.00;100.00;98902.38;5076861;28;19955;-72
2022/10/19 07:23:58;;;;;;;;;;;;;;;14.04;100.00;98903.47;5073789;28;19996;-73
2022/10/19 07:26:27;;;;;;;;;;;;;;;14.27;100.00;98902.22;5073838;28;20709;-72
2022/10/19 07:28:55;;;;;;;;;;;;;;;14.16;100.00;98899.75;5076874;28;19925;-71
2022/10/19 07:31:23;;;;;;;;;;;;;;;14.55;100.00;98898.31;5075862;28;19939;-71
2022/10/19 07:33:51;;;;;;;;;;;;;;;14.46;100.00;98894.53;5090086;28;19970;-72
2022/10/19 07:36:18;;;;;;;;;;;;;;;14.76;100.00;98899.97;5073527;28;20028;-72
2022/10/19 07:38:44;;;;;;;;;;;;;;;15.04;100.00;98886.03;5075584;28;19947;-71
2022/10/19 07:41:12;;;;;;;;;;;;;;;15.12;100.00;98890.91;5077364;28;19924;-71
2022/10/19 07:43:39;;;;;;;;;;;;;;;15.25;100.00;98881.50;5075921;28;20295;-71
2022/10/19 07:46:08;;;;;;;;;;;;;;;15.37;100.00;98884.72;5073782;28;19939;-71
2022/10/19 07:48:35;;;;;;;;;;;;;;;15.35;100.00;98886.84;5072819;28;19931;-71
2022/10/19 07:51:02;;;;;;;;;;;;;;;15.27;100.00;98890.09;5092876;28;19925;-72
2022/10/19 07:53:28;;;;;;;;;;;;;;;15.26;100.00;98893.03;5077192;28;19928;-71
2022/10/19 07:55:55;;;;;;;;;;;;;;;15.40;100.00;98891.44;5074507;28;20019;-72
2022/10/19 07:58:21;;;;;;;;;;;;;;;15.45;100.00;98880.66;5074361;28;19925;-72
2022/10/19 08:00:48;;;;;;;;;;;;;;;15.33;100.00;98888.22;5078204;28;19966;-72
2022/10/19 08:03:15;;;;;;;;;;;;;;;15.17;100.00;98894.66;5081684;28;20360;-71
2022/10/19 08:05:42;;;;;;;;;;;;;;;15.30;100.00;98884.19;5080332;28;19924;-72
2022/10/19 08:08:08;;;;;;;;;;;;;;;15.46;100.00;98885.78;5078075;28;19932;-71
2022/10/19 08:10:34;;;;;;;;;;;;;;;15.45;100.00;98880.66;5077422;28;19929;-72
2022/10/19 08:13:01;;;;;;;;;;;;;;;15.29;100.00;98881.78;5081368;28;19980;-72
2022/10/19 08:15:29;;;;;;;;;;;;;;;15.27;100.00;98884.72;5081238;28;19992;-72
2022/10/19 08:17:56;;;;;;;;;;;;;;;15.39;100.00;98898.72;5078118;28;20042;-71
2022/10/19 08:20:26;;;;;;;;;;;;;;;15.58;100.00;98897.13;5077510;28;19956;-72
2022/10/19 08:22:53;;;;;;;;;;;;;;;15.73;100.00;98893.59;5080656;28;19983;-71
2022/10/19 08:25:19;;;;;;;;;;;;;;;15.52;100.00;98892.81;5081017;28;19925;-71
2022/10/19 08:27:45;;;;;;;;;;;;;;;15.37;100.00;98890.09;5078297;28;19931;-72
2022/10/19 08:30:12;;;;;;;;;;;;;;;15.41;100.00;98882.31;5077060;28;19944;-74
2022/10/19 08:32:38;;;;;;;;;;;;;;;15.22;100.00;98892.00;5078263;28;19920;-71
2022/10/19 08:35:05;;;;;;;;;;;;;;;14.79;100.00;98894.06;5080420;28;19956;-72
2022/10/19 08:37:33;;;;;;;;;;;;;;;14.90;100.00;98890.34;5080413;28;19924;-72
2022/10/19 08:39:59;;;;;;;;;;;;;;;15.02;100.00;98896.28;5075329;28;19970;-72
2022/10/19 08:42:29;;;;;;;;;;;;;;;14.97;100.00;98895.47;5076807;28;19925;-72
2022/10/19 08:45:03;;;;;;;;;;;;;;;15.06;100.00;98899.25;5069108;28;19949;-70
2022/10/19 08:47:38;;;;;;;;;;;;;;;15.17;100.00;98894.66;5077365;28;19928;-71
2022/10/19 08:50:14;;;;;;;;;;;;;;;14.84;100.00;98895.97;5069770;28;19929;-70
2022/10/19 08:52:43;;;;;;;;;;;;;;;14.86;100.00;98894.63;5077912;28;19925;-71
2022/10/19 08:55:13;;;;;;;;;;;;;;;15.03;100.00;98895.22;5096698;28;19924;-71
2022/10/19 08:57:40;;;;;;;;;;;;;;;15.25;100.00;98903.03;5077383;28;19987;-71
2022/10/19 09:00:12;;;;;;;;;;;;;;;15.21;100.00;98893.88;5076563;28;19951;-71
2022/10/19 09:02:49;;;;;;;;;;;;;;;15.38;100.00;98896.31;5077494;28;20238;-71
2022/10/19 09:05:21;;;;;;;;;;;;;;;15.60;100.00;98897.66;5079779;28;19935;-72
2022/10/19 09:07:50;;;;;;;;;;;;;;;15.38;100.00;98897.09;5077156;28;19963;-71
2022/10/19 09:10:18;;;;;;;;;;;;;;;15.44;100.00;98895.22;5075731;28;19929;-70
2022/10/19 09:12:47;;;;;;;;;;;;;;;15.52;100.00;98894.69;5076897;28;19984;-70
2022/10/19 09:15:15;;;;;;;;;;;;;;;15.43;100.00;98893.59;5079603;28;19971;-71
2022/10/19 09:17:41;;;;;;;;;;;;;;;15.52;100.00;98892.81;5078233;28;19924;-71
2022/10/19 09:20:16;;;;;;;;;;;;;;;15.59;100.00;98898.75;5076259;28;20544;-71
2022/10/19 09:22:43;;;;;;;;;;;;;;;15.65;100.00;98896.84;5077752;28;19925;-71
2022/10/19 09:25:13;;;;;;;;;;;;;;;15.56;100.00;98893.09;5079460;28;20399;-71
2022/10/19 09:27:41;;;;;;;;;;;;;;;15.36;100.00;98898.44;5077834;28;19959;-71
2022/10/19 09:30:15;;;;;;;;;;;;;;;15.17;100.00;98895.47;5074357;28;19925;-71
2022/10/19 09:32:41;;;;;;;;;;;;;;;15.20;100.00;98889.56;5076800;28;19960;-71
2022/10/19 09:35:18;;;;;;;;;;;;;;;15.32;100.00;98900.06;5078936;28;19931;-71
2022/10/19 09:37:46;;;;;;;;;;;;;;;15.58;100.00;98890.91;5077083;28;19980;-72
2022/10/19 09:40:16;;;;;;;;;;;;;;;15.61;100.00;98898.44;5075467;28;19964;-71
2022/10/19 09:42:43;;;;;;;;;;;;;;;15.81;100.00;98893.06;5077272;28;19929;-72
2022/10/19 09:45:14;;;;;;;;;;;;;;;15.95;100.00;98896.78;5094970;28;19992;-72
2022/10/19 09:47:42;;;;;;;;;;;;;;;16.04;100.00;98900.53;5077688;28;19924;-71
2022/10/19 09:50:14;;;;;;;;;;;;;;;16.09;100.00;98908.56;5076030;28;19964;-71
2022/10/19 09:52:41;;;;;;;;;;;;;;;16.16;100.00;98906.41;5077465;28;19968;-72
2022/10/19 09:55:20;;;;;;;;;;;;;;;16.11;100.00;98897.53;5079909;28;19992;-72
2022/10/19 09:57:48;;;;;;;;;;;;;;;15.98;100.00;98900.81;5077115;28;19987;-72
2022/10/19 10:00:18;;;;;;;;;;;;;;;15.95;100.00;98902.16;5074518;28;19924;-72
2022/10/19 10:02:48;;;;;;;;;;;;;;;15.78;100.00;98904.38;5092572;28;19931;-72
2022/10/19 10:05:15;;;;;;;;;;;;;;;16.01;100.00;98900.25;5078404;28;19928;-72
2022/10/19 10:07:41;;;;;;;;;;;;;;;15.99;100.00;98899.72;5076810;28;19931;-71
2022/10/19 10:10:09;;;;;;;;;;;;;;;16.00;100.00;98898.66;5075140;28;20443;-72
2022/10/19 10:12:35;;;;;;;;;;;;;;;16.15;100.00;98912.88;5075431;28;19924;-72
2022/10/19 10:15:06;;;;;;;;;;;;;;;16.28;100.00;98908.00;5078220;28;19996;-72
2022/10/19 10:17:32;;;;;;;;;;;;;;;16.00;100.00;98918.31;5078198;28;19984;-71
2022/10/19 10:20:04;;;;;;;;;;;;;;;15.96;100.00;98913.75;5074767;28;19925;-71
2022/10/19 10:22:32;;;;;;;;;;;;;;;16.04;100.00;98913.19;5074733;28;19992;-71
2022/10/19 10:24:58;;;;;;;;;;;;;;;16.00;100.00;98915.59;5066418;28;19932;-70
2022/10/19 10:27:28;;;;;;;;;;;;;;;15.86;100.00;98911.06;5074436;28;19967;-71
2022/10/19 10:29:55;;;;;;;;;;;;;;;15.85;100.00;98906.75;5078302;28;19947;-71
2022/10/19 10:32:23;;;;;;;;;;;;;;;15.78;100.00;98900.88;5078623;28;19924;-72
2022/10/19 10:34:56;;;;;;;;;;;;;;;15.76;100.00;98909.19;5076043;28;19991;-71
2022/10/19 10:37:24;;;;;;;;;;;;;;;15.83;100.00;98898.97;5074329;28;19928;-71
2022/10/19 10:39:52;;;;;;;;;;;;;;;15.87;100.00;98893.84;5076986;28;19992;-71
2022/10/19 10:42:19;;;;;;;;;;;;;;;15.86;100.00;98879.56;5077743;28;19928;-71
2022/10/19 10:44:49;;;;;;;;;;;;;;;16.01;100.00;98884.91;5075418;28;19928;-71
2022/10/19 10:47:16;;;;;;;;;;;;;;;15.98;100.00;98888.16;5073862;28;19925;-72
2022/10/19 10:49:52;;;;;;;;;;;;;;;15.89;100.00;98881.69;5075520;28;19953;-71
2022/10/19 10:52:19;;;;;;;;;;;;;;;15.78;100.00;98884.69;5075590;28;19924;-71
2022/10/19 10:54:57;;;;;;;;;;;;;;;16.10;100.00;98872.47;5076826;28;19925;-71
2022/10/19 10:57:25;;;;;;;;;;;;;;;16.48;100.00;98879.06;5076609;28;19924;-71
2022/10/19 10:59:55;;;;;;;;;;;;;;;16.33;100.00;98875.63;5074939;28;19967;-72
2022/10/19 11:02:29;;;;;;;;;;;;;;;16.20;100.00;98882.41;5074908;28;19959;-72
2022/10/19 11:04:59;;;;;;;;;;;;;;;16.08;100.00;98882.72;5078151;28;19960;-72
2022/10/19 11:07:27;;;;;;;;;;;;;;;16.00;100.00;98894.06;5077597;28;19992;-72
2022/10/19 11:09:56;;;;;;;;;;;;;;;16.10;100.00;98894.03;5074220;28;19925;-72
2022/10/19 11:12:33;;;;;;;;;;;;;;;16.19;100.00;98875.41;5073927;28;19992;-72
2022/10/19 11:15:03;;;;;;;;;;;;;;;15.99;100.00;98862.00;5066178;28;19943;-72
2022/10/19 11:17:31;;;;;;;;;;;;;;;15.99;100.00;98862.81;5073717;28;19984;-72
2022/10/19 11:19:59;;;;;;;;;;;;;;;15.69;100.00;98862.09;5065507;28;19984;-71
2022/10/19 11:22:28;;;;;;;;;;;;;;;15.57;100.00;98856.97;5073414;28;19920;-72
2022/10/19 11:25:03;;;;;;;;;;;;;;;15.58;100.00;98864.00;5077092;28;19988;-72
2022/10/19 11:27:37;;;;;;;;;;;;;;;16.36;100.00;98853.50;5077079;28;19924;-72
2022/10/19 11:30:08;;;;;;;;;;;;;;;16.39;100.00;98845.66;5066436;28;19936;-72
2022/10/19 11:32:39;;;;;;;;;;;;;;;15.78;100.00;98845.13;5072990;28;19955;-71
2022/10/19 11:35:14;;;;;;;;;;;;;;;15.56;100.00;98850.00;5076873;28;20500;-71
2022/10/19 11:37:45;;;;;;;;;;;;;;;15.49;100.00;98846.78;5075601;28;19931;-71
2022/10/19 11:40:14;;;;;;;;;;;;;;;15.65;100.00;98834.91;5073873;28;19925;-72
2022/10/19 11:42:47;;;;;;;;;;;;;;;15.84;100.00;98827.03;5074927;28;19978;-71
2022/10/19 11:45:15;;;;;;;;;;;;;;;16.37;100.00;98812.00;5077275;28;19984;-72
2022/10/19 11:47:58;;;;;;;;;;;;;;;16.53;100.00;98811.59;5075566;28;19946;-71
2022/10/19 11:50:40;;;;;;;;;;;;;;;16.39;100.00;98809.81;5073471;28;19936;-72
2022/10/19 11:53:12;;;;;;;;;;;;;;;16.26;100.00;98811.22;5067388;28;19950;-72
2022/10/19 11:55:42;;;;;;;;;;;;;;;16.59;100.00;98796.22;5076020;28;19988;-72
2022/10/19 11:58:21;;;;;;;;;;;;;;;16.46;100.00;98800.34;5073519;28;19947;-71
2022/10/19 12:00:51;;;;;;;;;;;;;;;16.56;100.00;98788.69;5075430;28;19925;-72
2022/10/19 12:03:34;;;;;;;;;;;;;;;16.37;100.00;98787.72;5077029;28;19928;-72
2022/10/19 12:06:08;;;;;;;;;;;;;;;16.51;100.00;98792.22;5065689;28;19925;-72
2022/10/19 12:08:44;;;;;;;;;;;;;;;16.54;100.00;98790.84;5074063;28;19951;-72
2022/10/19 12:11:22;;;;;;;;;;;;;;;16.58;100.00;98783.84;5076690;28;19928;-72
2022/10/19 12:13:50;;;;;;;;;;;;;;;16.69;100.00;98786.19;5074898;28;19958;-72
2022/10/19 12:16:18;;;;;;;;;;;;;;;16.71;100.00;98781.28;5073903;28;20015;-72
2022/10/19 12:18:46;;;;;;;;;;;;;;;16.67;100.00;98780.25;5075373;28;19925;-73
2022/10/19 12:21:19;;;;;;;;;;;;;;;16.76;100.00;98774.25;5077288;28;19928;-73
2022/10/19 12:23:46;;;;;;;;;;;;;;;16.80;100.00;98769.91;5074800;28;19936;-72
2022/10/19 12:26:15;;;;;;;;;;;;;;;17.17;100.00;98760.16;5073308;28;19924;-72
2022/10/19 12:28:43;;;;;;;;;;;;;;;17.35;100.00;98755.91;5074657;28;19992;-71
2022/10/19 12:31:10;;;;;;;;;;;;;;;17.40;100.00;98755.03;5076732;28;19951;-71
2022/10/19 12:33:44;;;;;;;;;;;;;;;17.23;100.00;98752.78;5075827;28;19959;-71
2022/10/19 12:36:25;;;;;;;;;;;;;;;16.88;100.00;98748.53;5073193;28;19929;-72
2022/10/19 12:38:57;;;;;;;;;;;;;;;16.73;100.00;98757.56;5076069;28;19963;-73
2022/10/19 12:41:26;;;;;;;;;;;;;;;16.65;100.00;98752.75;5076722;28;19924;-72